Coosada, Alabama
Current Conditions -  °F | °C
As of 11:58 AM on Friday 21 Nov 2014 (Local Time) from KMXF Reporting Station
Clear Clear  
Wind Chill: 65°   Ceiling: Unl
Heat Index: 65°   Visibility: 10mi
Dew Point: 45°   Wind: 2mph
Humidity: 49%   Direction: NA
Pressure: 30.35"   Gusts: NA
Location:  32.5°N, 86.33°W
Report Text: KMXF 211758Z AUTO VRB02KT 10SM CLR 18/07 A3035 RMK AO2 SLP280 T01820072 10182 20038 58014
Loading
Personal Weather Stations






























Interactive Weather Map New forecast layout! Learn more

10-Day Weather Forecast

Advertisements
Track Severe Weather on mobile